Time;durP1;ratioP1;P1;durP2;ratioP2;P2;SDS_P1;SDS_P2;PMS_P1;PMS_P2;Temp;Humidity;BMP_temperature;BMP_pressure;BME280_temperature;BME280_humidity;BME280_pressure;Samples;Min_cycle;Max_cycle;Signal;HPM_P1;HPM_P2
2022/01/08 00:04:36;;;;;;;24.10;9.27;;;;;;;-0.66;67.27;100608.75;10541737;28;20266;-75
2022/01/08 00:09:39;;;;;;;23.83;9.93;;;;;;;-0.66;67.28;100596.03;10541698;28;20214;-70
2022/01/08 00:14:44;;;;;;;28.30;11.07;;;;;;;-0.74;67.25;100597.38;10541730;28;20718;-74
2022/01/08 00:19:47;;;;;;;22.77;9.77;;;;;;;-0.72;66.98;100585.59;10541575;28;20512;-73
2022/01/08 00:24:52;;;;;;;25.63;10.90;;;;;;;-0.74;66.52;100584.66;10542320;28;20211;-67
2022/01/08 00:29:57;;;;;;;24.33;9.83;;;;;;;-0.75;65.80;100567.63;10541780;28;20609;-70
2022/01/08 00:35:00;;;;;;;22.57;8.33;;;;;;;-0.72;64.59;100570.28;10541334;28;20199;-67
2022/01/08 00:40:04;;;;;;;21.93;9.30;;;;;;;-0.80;66.67;100574.25;10541302;28;20196;-64
2022/01/08 00:45:09;;;;;;;30.13;10.70;;;;;;;-0.96;68.14;100577.00;10545030;28;20211;-65
2022/01/08 00:50:13;;;;;;;25.77;11.43;;;;;;;-1.14;68.61;100571.22;10548472;28;20525;-67
2022/01/08 00:55:17;;;;;;;28.43;11.50;;;;;;;-1.20;69.96;100571.81;10549335;28;20199;-69
2022/01/08 01:00:22;;;;;;;27.27;11.60;;;;;;;-1.27;71.91;100574.06;10548971;28;20528;-69
2022/01/08 01:05:25;;;;;;;34.30;13.67;;;;;;;-1.41;72.70;100577.72;10547862;28;20239;-66
2022/01/08 01:10:29;;;;;;;32.17;12.40;;;;;;;-1.42;73.12;100569.25;10547957;28;20206;-65
2022/01/08 01:15:34;;;;;;;29.83;13.23;;;;;;;-1.56;74.73;100572.00;10548031;28;20199;-65
2022/01/08 01:20:37;;;;;;;29.10;12.50;;;;;;;-1.68;74.85;100564.75;10547250;28;20226;-64
2022/01/08 01:25:46;;;;;;;30.73;12.40;;;;;;;-1.71;75.16;100553.56;10547438;28;20287;-66
2022/01/08 01:41:05;;;;;;;27.60;12.17;;;;;;;-1.66;75.07;100547.00;10547752;28;20521;-64
2022/01/08 01:41:53;;;;;;;28.43;12.83;;;;;;;-1.74;75.31;100526.31;10547484;28;20280;-66
2022/01/08 01:47:04;;;;;;;28.10;11.57;;;;;;;-1.77;74.48;100515.16;10546932;28;20225;-69
2022/01/08 01:52:09;;;;;;;31.73;12.70;;;;;;;-1.81;74.46;100508.22;10547003;28;20231;-66
2022/01/08 01:57:16;;;;;;;29.27;11.03;;;;;;;-1.84;73.83;100520.78;10544336;28;20729;-72
2022/01/08 02:02:20;;;;;;;27.20;12.37;;;;;;;-1.83;73.77;100520.00;10545935;28;20235;-69
2022/01/08 02:07:27;;;;;;;29.13;11.83;;;;;;;-1.90;73.84;100521.44;10546395;28;20226;-68
2022/01/08 02:12:33;;;;;;;28.57;12.10;;;;;;;-1.96;73.77;100505.91;10545538;28;20652;-68
2022/01/08 02:17:38;;;;;;;31.57;12.23;;;;;;;-2.00;74.77;100506.56;10545494;28;20225;-67
2022/01/08 02:22:42;;;;;;;28.27;12.50;;;;;;;-2.05;74.39;100502.13;10545485;28;20215;-66
2022/01/08 02:27:46;;;;;;;32.17;13.00;;;;;;;-2.12;75.00;100502.69;10545249;28;20657;-66
2022/01/08 02:32:49;;;;;;;27.60;11.93;;;;;;;-2.17;74.78;100492.28;10544126;28;20673;-67
2022/01/08 02:37:54;;;;;;;32.60;12.27;;;;;;;-2.18;75.08;100494.78;10545456;28;20223;-68
2022/01/08 02:43:02;;;;;;;26.50;12.10;;;;;;;-2.19;74.69;100483.72;10544770;28;20219;-69
2022/01/08 02:48:06;;;;;;;27.47;11.43;;;;;;;-2.21;75.08;100481.94;10543880;28;20219;-65
2022/01/08 02:53:11;;;;;;;29.77;11.07;;;;;;;-2.29;75.25;100479.06;10544912;28;20219;-66
2022/01/08 02:58:14;;;;;;;29.60;11.40;;;;;;;-2.33;75.85;100481.44;10543971;28;20237;-65
2022/01/08 03:03:17;;;;;;;27.43;12.97;;;;;;;-2.39;75.85;100477.81;10543927;28;20233;-67
2022/01/08 03:08:22;;;;;;;27.33;12.03;;;;;;;-2.43;76.78;100475.94;10543412;28;20274;-66
2022/01/08 03:13:28;;;;;;;30.27;11.73;;;;;;;-2.44;77.06;100476.75;10542691;28;20570;-66
2022/01/08 03:18:32;;;;;;;28.17;11.57;;;;;;;-2.58;78.06;100472.75;10543317;28;20202;-73
2022/01/08 03:23:43;;;;;;;35.53;12.73;;;;;;;-2.62;78.21;100472.53;10542745;28;20318;-69
2022/01/08 03:28:47;;;;;;;33.90;12.53;;;;;;;-2.55;79.62;100470.34;10542854;28;20271;-67
2022/01/08 03:33:51;;;;;;;39.27;16.77;;;;;;;-2.68;79.04;100468.09;10542659;28;20625;-68
2022/01/08 03:38:56;;;;;;;27.87;12.47;;;;;;;-2.73;79.74;100466.13;10542516;28;20198;-69
2022/01/08 03:43:59;;;;;;;30.47;12.83;;;;;;;-2.75;81.28;100458.47;10541279;28;20649;-67
2022/01/08 03:49:23;;;;;;;31.10;12.27;;;;;;;-2.84;81.04;100464.78;10542186;28;20528;-65
2022/01/08 03:54:27;;;;;;;30.23;12.20;;;;;;;-2.94;81.90;100455.91;10542001;28;20267;-65
2022/01/08 03:59:31;;;;;;;24.20;10.97;;;;;;;-3.00;83.07;100453.09;10542064;28;20751;-69
2022/01/08 04:04:34;;;;;;;30.57;12.57;;;;;;;-3.03;83.29;100447.88;10542100;28;20257;-69
2022/01/08 04:09:38;;;;;;;47.93;18.70;;;;;;;-3.06;83.31;100451.94;10541984;28;20201;-66
2022/01/08 04:14:52;;;;;;;26.30;11.40;;;;;;;-3.13;83.90;100440.66;10542464;28;20195;-68
2022/01/08 04:19:55;;;;;;;30.33;11.17;;;;;;;-3.16;84.57;100440.53;10545465;28;20520;-69
2022/01/08 04:24:59;;;;;;;25.93;11.10;;;;;;;-3.21;85.01;100446.19;10550166;28;20215;-68
2022/01/08 04:30:04;;;;;;;27.37;12.97;;;;;;;-3.24;84.30;100436.75;10550230;28;20590;-67
2022/01/08 04:35:08;;;;;;;27.30;11.10;;;;;;;-3.27;84.68;100434.09;10549878;28;20199;-66
2022/01/08 04:40:13;;;;;;;27.93;11.97;;;;;;;-3.32;84.44;100420.31;10549962;28;20195;-70
2022/01/08 04:45:16;;;;;;;27.97;12.03;;;;;;;-3.31;84.98;100428.81;10549693;28;20317;-67
2022/01/08 04:50:19;;;;;;;32.07;12.37;;;;;;;-3.31;85.62;100422.06;10549479;28;20191;-66
2022/01/08 04:55:24;;;;;;;29.37;10.97;;;;;;;-3.39;85.73;100423.38;10549130;28;20639;-68
2022/01/08 05:00:27;;;;;;;24.07;10.53;;;;;;;-3.42;85.70;100415.63;10549036;28;20597;-69
2022/01/08 05:05:31;;;;;;;29.00;10.87;;;;;;;-3.50;85.90;100414.41;10548504;28;20626;-66
2022/01/08 05:10:35;;;;;;;32.20;12.80;;;;;;;-3.54;86.01;100420.16;10548652;28;20622;-69
2022/01/08 05:15:39;;;;;;;32.10;12.57;;;;;;;-3.57;86.11;100410.72;10548432;28;20205;-67
2022/01/08 05:20:50;;;;;;;25.30;10.50;;;;;;;-3.52;85.76;100403.34;10548634;28;20207;-65
2022/01/08 05:25:55;;;;;;;28.67;11.40;;;;;;;-3.58;86.32;100413.19;10548116;28;20219;-68
2022/01/08 05:30:58;;;;;;;29.77;11.10;;;;;;;-3.58;86.67;100411.53;10547531;28;20187;-68
2022/01/08 05:36:01;;;;;;;27.57;11.37;;;;;;;-3.61;86.28;100400.38;10547548;28;20648;-67
2022/01/08 05:41:06;;;;;;;31.02;12.48;;;;;;;-3.56;87.04;100416.66;10545247;28;20419;-67
2022/01/08 05:46:09;;;;;;;27.73;10.57;;;;;;;-3.52;86.97;100411.78;10543858;28;20224;-66
2022/01/08 05:51:12;;;;;;;27.53;10.93;;;;;;;-3.53;86.46;100415.16;10544021;28;20187;-65
2022/01/08 05:56:16;;;;;;;26.07;12.00;;;;;;;-3.65;86.20;100422.19;10543581;28;20524;-68
2022/01/08 06:01:20;;;;;;;24.67;11.70;;;;;;;-3.73;86.76;100433.59;10543411;28;20544;-66
2022/01/08 06:06:24;;;;;;;27.23;11.03;;;;;;;-3.70;87.09;100426.16;10543361;28;20298;-68
2022/01/08 06:11:29;;;;;;;29.67;11.73;;;;;;;-3.78;86.93;100424.91;10172845;28;10000541;-68
2022/01/08 06:16:35;;;;;;;31.53;12.27;;;;;;;-3.77;87.07;100421.59;10500924;28;20226;-66
2022/01/08 06:21:39;;;;;;;27.07;11.73;;;;;;;-3.78;87.96;100412.25;10500529;28;20725;-69
2022/01/08 06:26:48;;;;;;;35.83;14.07;;;;;;;-3.88;87.81;100417.69;10500742;28;20562;-68
2022/01/08 06:31:53;;;;;;;33.67;13.17;;;;;;;-3.92;89.06;100417.47;10500215;28;20357;-67
2022/01/08 06:36:56;;;;;;;32.03;12.57;;;;;;;-3.88;88.05;100416.81;10500657;28;20231;-66
2022/01/08 06:42:01;;;;;;;26.73;12.53;;;;;;;-3.91;88.06;100417.53;10499086;28;20212;-64
2022/01/08 06:47:04;;;;;;;29.40;10.93;;;;;;;-3.92;87.08;100407.34;10499270;28;20852;-68
2022/01/08 06:52:07;;;;;;;25.40;12.03;;;;;;;-3.85;87.53;100422.88;10499704;28;20688;-67
2022/01/08 06:57:12;;;;;;;31.63;12.87;;;;;;;-3.83;86.93;100407.78;10499058;28;20620;-61
2022/01/08 07:02:15;;;;;;;31.90;12.43;;;;;;;-4.01;89.26;100410.31;10498734;28;20224;-65
2022/01/08 07:07:19;;;;;;;33.40;12.80;;;;;;;-3.89;88.41;100412.53;10498850;28;20235;-66
2022/01/08 07:12:23;;;;;;;33.23;11.53;;;;;;;-3.86;88.02;100413.56;10525884;28;20219;-64
2022/01/08 07:17:26;;;;;;;28.93;11.77;;;;;;;-3.80;88.58;100416.41;10540012;28;20227;-68
2022/01/08 07:22:30;;;;;;;26.47;11.23;;;;;;;-3.85;87.24;100402.63;10540212;28;20215;-67
2022/01/08 07:27:35;;;;;;;29.10;12.07;;;;;;;-3.78;86.84;100414.78;10540040;28;20223;-68
2022/01/08 07:32:42;;;;;;;27.53;11.27;;;;;;;-3.77;86.68;100405.53;10539799;28;20241;-64
2022/01/08 07:37:46;;;;;;;28.50;11.67;;;;;;;-3.71;87.21;100410.91;10539926;28;20309;-68
2022/01/08 07:42:51;;;;;;;29.40;11.70;;;;;;;-3.66;86.10;100392.53;10539873;28;20231;-70
2022/01/08 07:47:55;;;;;;;26.27;11.50;;;;;;;-3.58;85.20;100396.31;10539712;28;20227;-67
2022/01/08 07:52:58;;;;;;;32.07;12.50;;;;;;;-3.59;84.50;100388.63;10539110;28;20560;-67
2022/01/08 07:58:03;;;;;;;26.97;11.47;;;;;;;-3.51;84.37;100384.78;10539042;28;20222;-67
2022/01/08 08:03:06;;;;;;;23.83;10.43;;;;;;;-3.34;83.56;100386.41;10539142;28;20237;-67
2022/01/08 08:08:10;;;;;;;27.53;11.80;;;;;;;-3.24;83.05;100378.41;10539051;28;20336;-67
2022/01/08 08:13:14;;;;;;;27.03;11.07;;;;;;;-3.09;83.68;100384.13;10504303;28;20224;-67
2022/01/08 08:18:17;;;;;;;27.43;11.47;;;;;;;-2.93;81.79;100389.09;10497359;28;20212;-68
2022/01/08 08:23:21;;;;;;;25.27;11.50;;;;;;;-2.84;80.96;100394.56;10496914;28;20224;-67
2022/01/08 08:28:27;;;;;;;29.17;11.57;;;;;;;-2.74;79.49;100372.97;10496732;28;20242;-70
2022/01/08 08:33:30;;;;;;;23.53;11.57;;;;;;;-2.64;79.50;100370.03;10496648;28;20231;-69
2022/01/08 08:38:33;;;;;;;30.60;11.67;;;;;;;-2.48;79.79;100363.09;10496128;28;20685;-68
2022/01/08 08:43:39;;;;;;;25.47;10.77;;;;;;;-2.40;78.57;100359.19;10496613;28;20220;-67
2022/01/08 08:48:43;;;;;;;22.27;11.23;;;;;;;-2.23;78.66;100362.44;10496106;28;20216;-64
2022/01/08 08:53:49;;;;;;;26.80;12.40;;;;;;;-2.03;78.38;100346.31;10495789;28;20224;-66
2022/01/08 08:58:54;;;;;;;25.03;11.57;;;;;;;-1.91;78.55;100349.31;10496358;28;20243;-67
2022/01/08 09:03:58;;;;;;;27.40;12.37;;;;;;;-1.77;77.71;100350.72;10499427;28;20693;-68
2022/01/08 09:09:02;;;;;;;28.87;12.03;;;;;;;-1.38;75.41;100347.13;10506649;28;20216;-69
2022/01/08 09:14:07;;;;;;;25.77;11.43;;;;;;;-1.20;72.33;100354.56;10506044;28;20250;-67
2022/01/08 09:19:10;;;;;;;23.87;10.60;;;;;;;-1.24;71.29;100345.06;10506011;28;20303;-70
2022/01/08 09:24:15;;;;;;;22.90;9.67;;;;;;;-1.24;70.13;100342.53;10505745;28;20224;-67
2022/01/08 09:29:20;;;;;;;23.43;10.73;;;;;;;-0.95;70.91;100324.09;10505797;28;20222;-66
2022/01/08 09:34:23;;;;;;;25.60;11.13;;;;;;;-0.88;69.41;100327.69;10505927;28;20302;-65
2022/01/08 09:39:26;;;;;;;21.80;10.67;;;;;;;-0.96;69.34;100317.25;10505519;28;20226;-69
2022/01/08 09:44:32;;;;;;;25.43;10.43;;;;;;;-0.77;68.56;100300.91;10505203;28;20227;-70
2022/01/08 09:49:36;;;;;;;23.10;11.30;;;;;;;-0.63;68.28;100305.66;10505728;28;20546;-69
2022/01/08 09:54:40;;;;;;;26.77;10.83;;;;;;;-0.60;67.75;100310.84;10505147;28;20310;-68
2022/01/08 09:59:45;;;;;;;26.83;11.13;;;;;;;-0.50;67.89;100307.78;10504706;28;20216;-67
2022/01/08 10:04:48;;;;;;;22.97;10.23;;;;;;;-0.56;68.13;100304.16;10503458;28;20238;-67
2022/01/08 10:10:10;;;;;;;24.47;10.30;;;;;;;-0.52;67.80;100301.75;10504189;28;20220;-69
2022/01/08 10:20:52;;;;;;;26.63;12.03;;;;;;;-0.16;67.13;100315.72;10413947;28;20221;-68
2022/01/08 10:25:59;;;;;;;27.37;11.50;;;;;;;-0.21;67.27;100299.38;10448201;28;20235;-68
2022/01/08 10:31:13;;;;;;;25.83;11.27;;;;;;;-0.20;67.66;100293.47;10459571;28;20700;-68
2022/01/08 10:36:23;;;;;;;26.40;11.57;;;;;;;-0.20;67.16;100293.47;10460027;28;20227;-65
2022/01/08 10:41:30;;;;;;;24.77;11.23;;;;;;;-0.16;67.77;100277.47;10458900;28;20282;-68
2022/01/08 10:46:35;;;;;;;27.87;11.43;;;;;;;0.11;67.45;100276.53;10458143;28;20277;-65
2022/01/08 10:51:40;;;;;;;26.83;11.73;;;;;;;0.29;66.94;100266.88;10457850;28;20277;-67
2022/01/08 10:56:45;;;;;;;23.23;11.67;;;;;;;0.34;67.01;100244.91;10457689;28;20554;-66
2022/01/08 11:01:56;;;;;;;27.23;11.07;;;;;;;0.72;65.98;100231.53;10457383;28;20221;-68
2022/01/08 11:07:01;;;;;;;22.83;10.70;;;;;;;0.85;65.57;100231.00;10457516;28;20231;-66
2022/01/08 11:12:07;;;;;;;25.33;13.03;;;;;;;1.43;64.80;100236.78;10457171;28;20217;-66
2022/01/08 11:17:17;;;;;;;25.53;10.90;;;;;;;1.97;63.68;100238.03;10456697;28;20669;-68
2022/01/08 11:22:22;;;;;;;23.50;11.33;;;;;;;1.44;63.87;100245.28;10120489;27;10000154;-66
2022/01/08 11:27:29;;;;;;;22.67;10.20;;;;;;;1.23;64.70;100237.97;10539572;28;20290;-68
2022/01/08 11:32:36;;;;;;;25.53;11.20;;;;;;;0.89;66.46;100237.94;10539893;28;20344;-68
2022/01/08 11:38:03;;;;;;;25.03;11.93;;;;;;;0.70;66.91;100239.16;10538564;28;20660;-71
2022/01/08 11:43:08;;;;;;;28.07;11.00;;;;;;;0.58;67.45;100230.28;10503222;28;20216;-69
2022/01/08 11:48:15;;;;;;;30.30;13.03;;;;;;;0.57;68.19;100228.56;10497518;28;20548;-67
2022/01/08 11:53:20;;;;;;;25.90;10.83;;;;;;;0.57;68.12;100231.97;10497538;28;20216;-68
2022/01/08 11:58:26;;;;;;;27.77;10.83;;;;;;;0.43;69.66;100251.13;10497120;28;20247;-69
2022/01/08 12:03:36;;;;;;;27.97;12.17;;;;;;;0.45;70.09;100249.50;10497377;28;20242;-67
2022/01/08 12:08:56;;;;;;;27.73;11.37;;;;;;;0.62;69.63;100239.78;10496859;28;20215;-67
2022/01/08 12:14:09;;;;;;;29.73;12.03;;;;;;;0.41;70.63;100244.28;10497048;28;20240;-69
2022/01/08 12:19:30;;;;;;;25.17;10.73;;;;;;;0.36;71.19;100243.28;10496870;28;20235;-70
2022/01/08 12:24:37;;;;;;;26.03;11.30;;;;;;;0.40;71.92;100245.94;10522789;28;20237;-67
2022/01/08 12:29:42;;;;;;;26.33;12.37;;;;;;;0.42;71.87;100238.31;10538781;28;20619;-67
2022/01/08 12:34:51;;;;;;;29.73;11.20;;;;;;;0.34;72.69;100239.81;10538040;28;20229;-68
2022/01/08 12:39:56;;;;;;;27.20;11.73;;;;;;;0.39;72.91;100222.94;10522584;28;20208;-68
2022/01/08 12:45:01;;;;;;;27.97;11.20;;;;;;;0.46;73.25;100220.63;10465533;28;20213;-66
2022/01/08 12:50:31;;;;;;;25.40;11.70;;;;;;;0.36;73.27;100225.41;10462622;28;20304;-66
2022/01/08 12:55:35;;;;;;;24.53;11.67;;;;;;;0.32;74.15;100223.59;10460786;28;20228;-69
2022/01/08 13:00:53;;;;;;;22.67;10.90;;;;;;;0.38;73.66;100221.22;10462276;28;20560;-65
2022/01/08 13:05:59;;;;;;;28.00;11.47;;;;;;;0.37;74.01;100215.25;10462117;28;20243;-68
2022/01/08 13:11:06;;;;;;;20.93;10.67;;;;;;;0.46;74.14;100205.28;10462250;28;20286;-66
2022/01/08 13:16:13;;;;;;;22.70;11.20;;;;;;;0.55;74.43;100212.34;10461686;28;20239;-69
2022/01/08 13:21:29;;;;;;;22.77;10.83;;;;;;;0.58;74.02;100207.31;10461573;28;20251;-65
2022/01/08 13:26:38;;;;;;;28.60;11.53;;;;;;;0.71;74.51;100205.13;10461022;28;20584;-67
2022/01/08 13:31:43;;;;;;;27.07;12.53;;;;;;;0.61;74.64;100198.03;10460961;28;20558;-65
2022/01/08 13:36:58;;;;;;;30.13;13.10;;;;;;;0.59;74.54;100196.25;10460967;28;20225;-67
2022/01/08 13:42:23;;;;;;;27.13;12.30;;;;;;;0.60;75.36;100195.44;10460584;28;20242;-67
2022/01/08 13:47:30;;;;;;;32.63;12.63;;;;;;;0.61;75.83;100197.16;10460337;28;20231;-70
2022/01/08 13:52:39;;;;;;;24.70;12.27;;;;;;;0.59;75.63;100198.81;10460170;28;20224;-70
2022/01/08 13:57:45;;;;;;;41.87;18.07;;;;;;;0.58;76.11;100189.44;10482498;28;20623;-69
2022/01/08 14:02:50;;;;;;;26.00;11.63;;;;;;;0.61;75.92;100192.06;10497500;28;20642;-66
2022/01/08 14:08:04;;;;;;;23.17;11.60;;;;;;;0.69;76.76;100198.25;10459771;28;20296;-67
2022/01/08 14:13:09;;;;;;;24.33;12.33;;;;;;;0.61;77.04;100187.81;10459212;28;20213;-66
2022/01/08 14:18:16;;;;;;;30.80;12.50;;;;;;;0.57;76.73;100180.91;10459153;28;20224;-68
2022/01/08 14:23:23;;;;;;;40.57;20.83;;;;;;;0.57;77.21;100182.63;10490406;28;20223;-68
2022/01/08 14:28:28;;;;;;;25.53;11.93;;;;;;;0.59;77.19;100179.25;10542349;28;20553;-67
2022/01/08 14:33:31;;;;;;;25.83;11.70;;;;;;;0.68;77.89;100179.50;10537326;28;20214;-65
2022/01/08 14:38:49;;;;;;;27.00;11.60;;;;;;;0.65;77.42;100181.13;10499591;28;20324;-68
2022/01/08 14:43:58;;;;;;;26.73;12.00;;;;;;;0.66;77.71;100188.81;10500067;28;20224;-68
2022/01/08 14:49:02;;;;;;;29.07;13.00;;;;;;;0.59;77.50;100191.16;10499647;28;20230;-63
2022/01/08 14:54:08;;;;;;;29.50;12.93;;;;;;;0.55;77.84;100191.91;10499060;28;20212;-66
2022/01/08 14:59:12;;;;;;;26.10;12.73;;;;;;;0.52;78.92;100191.84;10498986;28;20224;-65
2022/01/08 15:04:15;;;;;;;28.33;13.00;;;;;;;0.58;78.94;100195.41;10487436;28;20254;-67
2022/01/08 15:09:21;;;;;;;27.10;12.87;;;;;;;0.61;79.43;100186.94;10457534;28;20224;-68
2022/01/08 15:14:24;;;;;;;29.43;12.07;;;;;;;0.63;78.83;100186.19;10457097;28;20589;-72
2022/01/08 15:19:28;;;;;;;28.50;12.37;;;;;;;0.66;78.81;100195.59;10456932;28;20233;-68
2022/01/08 15:24:33;;;;;;;23.97;12.37;;;;;;;0.71;79.33;100196.59;10459191;28;20223;-71
2022/01/08 15:29:37;;;;;;;24.83;11.20;;;;;;;0.68;79.18;100187.16;10460116;28;20233;-69
2022/01/08 15:34:40;;;;;;;29.77;12.20;;;;;;;0.74;79.80;100189.88;10459636;28;20308;-69
2022/01/08 15:39:47;;;;;;;28.17;13.03;;;;;;;0.72;79.71;100186.44;10460194;28;20256;-61
2022/01/08 15:44:50;;;;;;;23.23;12.10;;;;;;;0.73;80.05;100185.59;10459330;28;20220;-61
2022/01/08 15:49:54;;;;;;;27.43;12.90;;;;;;;0.78;80.02;100188.25;10459133;28;20308;-62
2022/01/08 15:54:58;;;;;;;30.30;13.40;;;;;;;0.77;80.49;100189.09;10458986;28;20555;-57
2022/01/08 16:00:02;;;;;;;25.13;11.63;;;;;;;0.80;80.61;100192.59;10458791;28;20235;-61
2022/01/08 16:05:06;;;;;;;25.60;13.03;;;;;;;0.82;80.67;100175.63;10458687;28;20678;-63
2022/01/08 16:10:11;;;;;;;26.63;13.73;;;;;;;0.82;80.69;100177.31;10458474;28;20216;-62
2022/01/08 16:15:17;;;;;;;28.57;13.50;;;;;;;0.79;81.74;100169.56;10460697;28;20212;-68
2022/01/08 16:20:20;;;;;;;29.70;12.73;;;;;;;0.93;80.27;100174.19;10466998;28;20231;-60
2022/01/08 16:25:27;;;;;;;22.03;12.10;;;;;;;0.83;79.77;100167.13;10466726;28;20614;-63
2022/01/08 16:30:31;;;;;;;25.60;12.17;;;;;;;0.82;81.04;100165.41;10466622;28;20558;-62
2022/01/08 16:35:34;;;;;;;26.17;12.90;;;;;;;0.83;80.96;100154.34;10466560;28;20217;-61
2022/01/08 16:40:39;;;;;;;22.77;12.23;;;;;;;0.87;80.74;100168.94;10466252;28;20217;-61
2022/01/08 16:45:44;;;;;;;30.47;15.33;;;;;;;1.10;81.06;100172.06;10466487;28;20216;-73
2022/01/08 16:50:47;;;;;;;26.33;12.73;;;;;;;0.98;80.71;100169.22;10466128;28;20304;-64
2022/01/08 16:55:52;;;;;;;29.80;13.67;;;;;;;0.88;81.77;100164.72;10465594;28;20221;-63
2022/01/08 17:00:56;;;;;;;30.10;14.00;;;;;;;0.88;81.84;100164.72;10465432;28;20228;-65
2022/01/08 17:05:59;;;;;;;30.20;13.37;;;;;;;0.87;82.02;100153.63;10464786;28;20251;-64
2022/01/08 17:11:15;;;;;;;32.63;14.30;;;;;;;0.79;82.36;100147.47;10465199;28;20561;-62
2022/01/08 17:16:19;;;;;;;31.87;14.67;;;;;;;0.78;82.97;100139.72;10464819;28;20676;-64
2022/01/08 17:21:25;;;;;;;28.80;14.10;;;;;;;0.72;82.81;100142.16;10464593;28;20217;-64
2022/01/08 17:26:30;;;;;;;29.80;14.47;;;;;;;0.84;82.77;100129.69;10464428;28;20201;-63
2022/01/08 17:31:33;;;;;;;32.60;14.73;;;;;;;0.71;83.14;100131.06;10464680;28;20215;-62
2022/01/08 17:36:37;;;;;;;30.30;15.07;;;;;;;0.70;83.70;100131.91;10125777;27;10000274;-67
2022/01/08 17:41:42;;;;;;;33.63;15.10;;;;;;;0.74;84.51;100120.06;10544244;28;20188;-65
2022/01/08 17:46:45;;;;;;;31.17;15.03;;;;;;;0.71;84.45;100118.28;10543969;28;20209;-59
2022/01/08 17:51:48;;;;;;;34.30;14.50;;;;;;;0.68;84.70;100115.69;10544042;28;20194;-62
2022/01/08 17:56:53;;;;;;;31.90;15.07;;;;;;;0.67;84.78;100107.97;10543550;28;20211;-64
2022/01/08 18:02:10;;;;;;;30.03;15.47;;;;;;;0.66;85.77;100102.00;10543338;28;20274;-64
2022/01/08 18:07:16;;;;;;;29.93;15.77;;;;;;;0.59;85.38;100100.13;10543356;28;20761;-63
2022/01/08 18:12:20;;;;;;;31.87;16.30;;;;;;;0.59;86.43;100104.34;10542765;28;20206;-67
2022/01/08 18:17:24;;;;;;;34.97;16.60;;;;;;;0.60;86.58;100101.00;10542550;28;20345;-63
2022/01/08 18:22:27;;;;;;;36.57;15.97;;;;;;;0.69;87.55;100096.13;10542578;28;20219;-68
2022/01/08 18:27:32;;;;;;;31.90;15.93;;;;;;;0.77;86.59;100087.81;10542313;28;20270;-66
2022/01/08 18:32:36;;;;;;;39.63;16.47;;;;;;;0.66;86.47;100076.47;10542052;28;20661;-65
2022/01/08 18:37:41;;;;;;;33.92;18.45;;;;;;;0.62;86.82;100073.81;10523928;28;20441;-65
2022/01/08 18:42:45;;;;;;;37.43;16.23;;;;;;;0.57;87.63;100071.13;10499651;28;20248;-64
2022/01/08 18:47:52;;;;;;;35.77;16.60;;;;;;;0.62;87.68;100063.59;10499394;28;20569;-63
2022/01/08 18:52:56;;;;;;;32.73;16.97;;;;;;;0.60;87.56;100061.00;10499551;28;20226;-65
2022/01/08 18:58:00;;;;;;;33.77;16.90;;;;;;;0.62;88.30;100056.78;10499246;28;20239;-65
2022/01/08 19:03:04;;;;;;;36.53;15.47;;;;;;;0.63;87.91;100058.53;10498735;28;20242;-65
2022/01/08 19:08:07;;;;;;;33.43;16.33;;;;;;;0.60;87.58;100052.47;10498870;28;20242;-62
2022/01/08 19:13:12;;;;;;;35.43;15.47;;;;;;;0.54;88.33;100057.44;10498386;28;20301;-64
2022/01/08 19:18:15;;;;;;;37.63;17.03;;;;;;;0.56;88.41;100054.09;10498121;28;20275;-63
2022/01/08 19:23:19;;;;;;;36.17;17.73;;;;;;;0.57;88.48;100052.41;10498273;28;20619;-64
2022/01/08 19:28:23;;;;;;;35.33;16.83;;;;;;;0.53;88.50;100050.59;10497966;28;20303;-64
2022/01/08 19:33:27;;;;;;;36.80;17.50;;;;;;;0.53;88.41;100033.59;10497787;28;20228;-64
2022/01/08 19:38:30;;;;;;;35.20;17.00;;;;;;;0.56;88.29;100037.91;10520837;28;20243;-66
2022/01/08 19:43:35;;;;;;;35.50;16.80;;;;;;;0.68;88.31;100031.41;10539750;28;20222;-64
2022/01/08 19:48:38;;;;;;;34.87;15.97;;;;;;;0.59;88.30;100022.66;10538785;28;20220;-63
2022/01/08 19:53:42;;;;;;;39.30;16.77;;;;;;;0.56;88.96;100031.13;10538861;28;20207;-62
2022/01/08 19:58:47;;;;;;;36.37;17.03;;;;;;;0.56;89.19;100022.59;10538766;28;20219;-64
2022/01/08 20:03:54;;;;;;;34.97;17.00;;;;;;;0.62;89.64;100015.09;10539014;28;20306;-65
2022/01/08 20:08:57;;;;;;;41.23;17.87;;;;;;;0.52;89.56;100011.44;10538825;28;20222;-64
2022/01/08 20:14:02;;;;;;;38.87;18.93;;;;;;;0.51;90.10;100019.06;10538516;28;20306;-65
2022/01/08 20:19:05;;;;;;;37.87;17.77;;;;;;;0.55;91.05;100010.66;10538487;28;20219;-64
2022/01/08 20:24:08;;;;;;;35.73;18.47;;;;;;;0.59;91.77;100008.22;10538468;28;20212;-63
2022/01/08 20:29:13;;;;;;;39.20;17.87;;;;;;;0.57;91.16;100011.56;10538585;28;20225;-65
2022/01/08 20:34:16;;;;;;;41.90;19.43;;;;;;;0.64;91.46;100009.19;10538212;28;20306;-64
2022/01/08 20:39:20;;;;;;;38.60;18.83;;;;;;;0.61;91.64;99998.91;10508221;28;20215;-63
2022/01/08 20:44:24;;;;;;;40.67;18.90;;;;;;;0.56;91.54;100000.50;10496500;28;20226;-63
2022/01/08 20:49:27;;;;;;;37.00;18.53;;;;;;;0.57;91.72;100004.75;10496170;28;20220;-65
2022/01/08 20:54:31;;;;;;;40.87;18.10;;;;;;;0.61;91.89;100000.59;10496331;28;20212;-64
2022/01/08 20:59:35;;;;;;;43.10;19.47;;;;;;;0.60;92.07;100001.44;10496092;28;20258;-63
2022/01/08 21:04:39;;;;;;;47.80;20.23;;;;;;;0.58;92.31;99996.28;10503264;28;20646;-64
2022/01/08 21:09:43;;;;;;;43.80;20.87;;;;;;;0.64;94.25;99991.31;10503460;28;20247;-63
2022/01/08 21:14:47;;;;;;;49.10;20.40;;;;;;;0.61;92.99;99985.25;10503910;28;20232;-63
2022/01/08 21:19:50;;;;;;;40.43;18.83;;;;;;;0.58;93.26;99968.22;10503019;28;20234;-64
2022/01/08 21:24:54;;;;;;;40.97;20.00;;;;;;;0.57;93.55;99968.19;10502954;28;20683;-65
2022/01/08 21:29:59;;;;;;;44.57;19.87;;;;;;;0.59;93.96;99972.47;10503045;28;20232;-61
2022/01/08 21:35:02;;;;;;;44.63;20.17;;;;;;;0.54;93.08;99968.94;10502525;28;20701;-62
2022/01/08 21:40:08;;;;;;;44.20;20.33;;;;;;;0.53;94.65;99963.81;10538388;28;20283;-65
2022/01/08 21:45:14;;;;;;;38.43;19.93;;;;;;;0.55;94.39;99964.72;10544304;28;20168;-62
2022/01/08 21:50:21;;;;;;;42.13;20.43;;;;;;;0.54;94.79;99961.28;10543836;28;20282;-65
2022/01/08 21:55:25;;;;;;;45.57;19.67;;;;;;;0.51;95.19;99958.69;10543905;28;20282;-65
2022/01/08 22:00:30;;;;;;;44.60;20.23;;;;;;;0.62;96.21;99961.47;10544344;28;20306;-65
2022/01/08 22:05:35;;;;;;;48.67;20.83;;;;;;;0.59;95.90;99957.16;10543329;28;20235;-63
2022/01/08 22:10:38;;;;;;;44.47;21.03;;;;;;;0.55;95.35;99949.41;10543205;28;20201;-62
2022/01/08 22:15:43;;;;;;;43.20;20.67;;;;;;;0.55;95.40;99944.28;10542874;28;20206;-63
2022/01/08 22:20:46;;;;;;;44.00;20.53;;;;;;;0.55;95.61;99941.75;10542461;28;20231;-64
2022/01/08 22:25:49;;;;;;;42.70;21.00;;;;;;;0.49;95.54;99944.13;10542645;28;20192;-62
2022/01/08 22:30:54;;;;;;;40.33;20.57;;;;;;;0.49;96.46;99936.47;10542268;28;20204;-64
2022/01/08 22:35:57;;;;;;;47.00;21.97;;;;;;;0.47;96.08;99930.47;10539718;28;20233;-66
2022/01/08 22:41:01;;;;;;;41.73;21.07;;;;;;;0.42;96.34;99932.94;10499884;28;20306;-63
2022/01/08 22:46:05;;;;;;;49.20;20.40;;;;;;;0.47;97.31;99917.72;10499877;28;20212;-65
2022/01/08 22:51:10;;;;;;;43.10;21.20;;;;;;;0.51;97.05;99914.41;10498770;28;20303;-63
2022/01/08 22:56:14;;;;;;;48.73;22.10;;;;;;;0.52;96.96;99900.84;10499476;28;20523;-61
2022/01/08 23:01:19;;;;;;;46.00;19.77;;;;;;;0.45;97.14;99894.72;10499458;28;20220;-65
2022/01/08 23:06:25;;;;;;;46.33;20.53;;;;;;;0.47;97.41;99893.06;10499655;28;20230;-62
2022/01/08 23:11:28;;;;;;;43.90;20.73;;;;;;;0.53;97.82;99879.59;10498704;28;20265;-63
2022/01/08 23:16:33;;;;;;;51.33;20.53;;;;;;;0.50;97.64;99869.31;10498512;28;20239;-60